KGFL/GFL METAR and TAF weather

Enter ICAO airport designator
Station Type Date Time Source
KGFL METAR 2020/01/20 18:53 UTC NOAA

KGFL 201853Z AUTO 14004KT 10SM CLR M07/M17 A3030 RMK AO2 SLP273 T10721167


Station Type Date Time Source
KGFL Decoded METAR 2020/01/20 18:53 UTC NOAA

FLOYD BENNETT MEMORIAL AIRPORT , NY, United States (KGFL) 43-20N 073-37W 103M
Jan 20, 2020 - 01:53 PM EST / 2020.01.20 1853 UTC
Wind: from the SE (140 degrees) at 5 MPH (4 KT):0
Visibility: 10 mile(s):0
Sky conditions: clear
Temperature: 19.0 F (-7.2 C)
Windchill: 12 F (-11 C):1
Dew Point: 1.9 F (-16.7 C)
Relative Humidity: 46%
Pressure (altimeter): 30.3 in. Hg (1026 hPa)
ob: KGFL 201853Z AUTO 14004KT 10SM CLR M07/M17 A3030 RMK AO2 SLP273 T10721167
cycle: 19

Station Type Date Time Source
KGFL TAF 2020/01/20 18:22 UTC NOAA

TAF KGFL 201720Z 2018/2118 07005KT P6SM SKC
FM210000 VRB03KT P6SM SKC
FM211500 15005KT P6SM BKN200

Example: see airport list